sensor_id;sensor_type;location;lat;lon;timestamp;temperature;humidity
48876;DHT22;34689;51.644;5.618;2023-04-25T00:00:40;7.70;99.90
48876;DHT22;34689;51.644;5.618;2023-04-25T00:03:06;7.70;99.90
48876;DHT22;34689;51.644;5.618;2023-04-25T00:05:31;7.70;99.90
48876;DHT22;34689;51.644;5.618;2023-04-25T00:07:57;7.60;99.90
48876;DHT22;34689;51.644;5.618;2023-04-25T00:10:26;7.70;99.90
48876;DHT22;34689;51.644;5.618;2023-04-25T00:12:51;7.60;99.90
48876;DHT22;34689;51.644;5.618;2023-04-25T00:15:17;7.60;99.90
48876;DHT22;34689;51.644;5.618;2023-04-25T00:17:43;7.60;99.90
48876;DHT22;34689;51.644;5.618;2023-04-25T00:20:11;7.60;99.90
48876;DHT22;34689;51.644;5.618;2023-04-25T00:22:37;7.60;99.90
48876;DHT22;34689;51.644;5.618;2023-04-25T00:25:06;7.50;99.90
48876;DHT22;34689;51.644;5.618;2023-04-25T00:27:32;7.50;99.90
48876;DHT22;34689;51.644;5.618;2023-04-25T00:29:58;7.50;99.90
48876;DHT22;34689;51.644;5.618;2023-04-25T00:32:24;7.50;99.90
48876;DHT22;34689;51.644;5.618;2023-04-25T00:34:49;7.40;99.90
48876;DHT22;34689;51.644;5.618;2023-04-25T00:37:18;7.40;99.90
48876;DHT22;34689;51.644;5.618;2023-04-25T00:39:45;7.40;99.90
48876;DHT22;34689;51.644;5.618;2023-04-25T00:42:11;7.40;99.90
48876;DHT22;34689;51.644;5.618;2023-04-25T00:44:37;7.40;99.90
48876;DHT22;34689;51.644;5.618;2023-04-25T00:47:03;7.40;99.90
48876;DHT22;34689;51.644;5.618;2023-04-25T00:49:29;7.40;99.90
48876;DHT22;34689;51.644;5.618;2023-04-25T00:51:56;7.30;99.90
48876;DHT22;34689;51.644;5.618;2023-04-25T00:54:22;7.30;99.90
48876;DHT22;34689;51.644;5.618;2023-04-25T00:56:53;7.40;99.90
48876;DHT22;34689;51.644;5.618;2023-04-25T00:59:19;7.40;99.90
48876;DHT22;34689;51.644;5.618;2023-04-25T01:01:48;7.30;99.90
48876;DHT22;34689;51.644;5.618;2023-04-25T01:04:14;7.30;99.90
48876;DHT22;34689;51.644;5.618;2023-04-25T01:06:40;7.30;99.90
48876;DHT22;34689;51.644;5.618;2023-04-25T01:09:07;7.30;99.90
48876;DHT22;34689;51.644;5.618;2023-04-25T01:11:33;7.30;99.90
48876;DHT22;34689;51.644;5.618;2023-04-25T01:13:58;7.30;99.90
48876;DHT22;34689;51.644;5.618;2023-04-25T01:16:24;7.20;99.90
48876;DHT22;34689;51.644;5.618;2023-04-25T01:18:53;7.20;99.90
48876;DHT22;34689;51.644;5.618;2023-04-25T01:21:19;7.20;99.90
48876;DHT22;34689;51.644;5.618;2023-04-25T01:23:46;7.20;99.90
48876;DHT22;34689;51.644;5.618;2023-04-25T01:26:12;7.20;99.90
48876;DHT22;34689;51.644;5.618;2023-04-25T01:28:39;7.10;99.90
48876;DHT22;34689;51.644;5.618;2023-04-25T01:31:07;7.10;99.90
48876;DHT22;34689;51.644;5.618;2023-04-25T01:33:32;7.10;99.90
48876;DHT22;34689;51.644;5.618;2023-04-25T01:35:58;7.10;99.90
48876;DHT22;34689;51.644;5.618;2023-04-25T01:38:24;7.10;99.90
48876;DHT22;34689;51.644;5.618;2023-04-25T01:40:51;7.10;99.90
48876;DHT22;34689;51.644;5.618;2023-04-25T01:43:17;7.10;99.90
48876;DHT22;34689;51.644;5.618;2023-04-25T01:45:43;7.00;99.90
48876;DHT22;34689;51.644;5.618;2023-04-25T01:48:13;7.00;99.90
48876;DHT22;34689;51.644;5.618;2023-04-25T01:50:40;7.00;99.90
48876;DHT22;34689;51.644;5.618;2023-04-25T01:53:06;7.00;99.90
48876;DHT22;34689;51.644;5.618;2023-04-25T01:58:12;7.00;99.90
48876;DHT22;34689;51.644;5.618;2023-04-25T02:00:38;7.00;99.90
48876;DHT22;34689;51.644;5.618;2023-04-25T02:03:07;7.10;99.90
48876;DHT22;34689;51.644;5.618;2023-04-25T02:05:40;7.10;99.90
48876;DHT22;34689;51.644;5.618;2023-04-25T02:08:08;7.10;99.90
48876;DHT22;34689;51.644;5.618;2023-04-25T02:10:34;7.20;99.90
48876;DHT22;34689;51.644;5.618;2023-04-25T02:13:03;7.10;99.90
48876;DHT22;34689;51.644;5.618;2023-04-25T02:15:30;7.10;99.90
48876;DHT22;34689;51.644;5.618;2023-04-25T02:17:56;7.20;99.90
48876;DHT22;34689;51.644;5.618;2023-04-25T02:20:27;7.20;99.90
48876;DHT22;34689;51.644;5.618;2023-04-25T02:22:52;7.20;99.90
48876;DHT22;34689;51.644;5.618;2023-04-25T02:25:19;7.20;99.90
48876;DHT22;34689;51.644;5.618;2023-04-25T02:27:48;7.10;99.90
48876;DHT22;34689;51.644;5.618;2023-04-25T02:30:14;7.20;99.90
48876;DHT22;34689;51.644;5.618;2023-04-25T02:32:40;7.20;99.90
48876;DHT22;34689;51.644;5.618;2023-04-25T02:35:07;7.20;99.90
48876;DHT22;34689;51.644;5.618;2023-04-25T02:37:38;7.20;99.90
48876;DHT22;34689;51.644;5.618;2023-04-25T02:40:07;7.20;99.90
48876;DHT22;34689;51.644;5.618;2023-04-25T02:42:33;7.10;99.90
48876;DHT22;34689;51.644;5.618;2023-04-25T02:44:59;7.10;99.90
48876;DHT22;34689;51.644;5.618;2023-04-25T02:47:25;7.20;99.90
48876;DHT22;34689;51.644;5.618;2023-04-25T02:49:50;7.10;99.90
48876;DHT22;34689;51.644;5.618;2023-04-25T02:52:16;7.10;99.90
48876;DHT22;34689;51.644;5.618;2023-04-25T02:54:42;7.10;99.90
48876;DHT22;34689;51.644;5.618;2023-04-25T02:57:08;7.10;99.90
48876;DHT22;34689;51.644;5.618;2023-04-25T02:59:33;7.10;99.90
48876;DHT22;34689;51.644;5.618;2023-04-25T03:02:00;7.00;99.90
48876;DHT22;34689;51.644;5.618;2023-04-25T03:04:28;7.00;99.90
48876;DHT22;34689;51.644;5.618;2023-04-25T03:06:56;7.00;99.90
48876;DHT22;34689;51.644;5.618;2023-04-25T03:09:25;6.90;99.90
48876;DHT22;34689;51.644;5.618;2023-04-25T03:11:53;6.90;99.90
48876;DHT22;34689;51.644;5.618;2023-04-25T03:14:19;6.90;99.90
48876;DHT22;34689;51.644;5.618;2023-04-25T03:16:47;6.80;99.90
48876;DHT22;34689;51.644;5.618;2023-04-25T03:19:18;6.80;99.90
48876;DHT22;34689;51.644;5.618;2023-04-25T03:21:45;6.70;99.90
48876;DHT22;34689;51.644;5.618;2023-04-25T03:24:11;6.80;99.90
48876;DHT22;34689;51.644;5.618;2023-04-25T03:26:37;6.70;99.90
48876;DHT22;34689;51.644;5.618;2023-04-25T03:29:03;6.70;99.90
48876;DHT22;34689;51.644;5.618;2023-04-25T03:31:29;6.70;99.90
48876;DHT22;34689;51.644;5.618;2023-04-25T03:33:54;6.70;99.90
48876;DHT22;34689;51.644;5.618;2023-04-25T03:36:22;6.70;99.90
48876;DHT22;34689;51.644;5.618;2023-04-25T03:38:48;6.70;99.90
48876;DHT22;34689;51.644;5.618;2023-04-25T03:41:14;6.80;99.90
48876;DHT22;34689;51.644;5.618;2023-04-25T03:43:41;6.80;99.90
48876;DHT22;34689;51.644;5.618;2023-04-25T03:46:07;6.80;99.90
48876;DHT22;34689;51.644;5.618;2023-04-25T03:48:33;6.80;99.90
48876;DHT22;34689;51.644;5.618;2023-04-25T03:50:58;6.80;99.90
48876;DHT22;34689;51.644;5.618;2023-04-25T03:53:25;6.80;99.90
48876;DHT22;34689;51.644;5.618;2023-04-25T03:55:51;6.80;99.90
48876;DHT22;34689;51.644;5.618;2023-04-25T04:01:25;6.70;99.90
48876;DHT22;34689;51.644;5.618;2023-04-25T04:03:51;6.70;99.90
48876;DHT22;34689;51.644;5.618;2023-04-25T04:06:16;6.70;99.90
48876;DHT22;34689;51.644;5.618;2023-04-25T04:08:42;6.60;99.90
48876;DHT22;34689;51.644;5.618;2023-04-25T04:11:08;6.60;99.90
48876;DHT22;34689;51.644;5.618;2023-04-25T04:13:33;6.50;99.90
48876;DHT22;34689;51.644;5.618;2023-04-25T04:15:59;6.50;99.90
48876;DHT22;34689;51.644;5.618;2023-04-25T04:18:25;6.50;99.90
48876;DHT22;34689;51.644;5.618;2023-04-25T04:20:50;6.50;99.90
48876;DHT22;34689;51.644;5.618;2023-04-25T04:23:16;6.50;99.90
48876;DHT22;34689;51.644;5.618;2023-04-25T04:25:42;6.50;99.90
48876;DHT22;34689;51.644;5.618;2023-04-25T04:28:10;6.50;99.90
48876;DHT22;34689;51.644;5.618;2023-04-25T04:30:39;6.50;99.90
48876;DHT22;34689;51.644;5.618;2023-04-25T04:33:07;6.50;99.90
48876;DHT22;34689;51.644;5.618;2023-04-25T04:35:33;6.50;99.90
48876;DHT22;34689;51.644;5.618;2023-04-25T04:37:58;6.50;99.90
48876;DHT22;34689;51.644;5.618;2023-04-25T04:40:24;6.50;99.90
48876;DHT22;34689;51.644;5.618;2023-04-25T04:42:53;6.50;99.90
48876;DHT22;34689;51.644;5.618;2023-04-25T04:45:21;6.50;99.90
48876;DHT22;34689;51.644;5.618;2023-04-25T04:47:50;6.40;99.90
48876;DHT22;34689;51.644;5.618;2023-04-25T04:50:15;6.40;99.90
48876;DHT22;34689;51.644;5.618;2023-04-25T04:52:41;6.40;99.90
48876;DHT22;34689;51.644;5.618;2023-04-25T04:55:08;6.50;99.90
48876;DHT22;34689;51.644;5.618;2023-04-25T04:57:34;6.50;99.90
48876;DHT22;34689;51.644;5.618;2023-04-25T05:00:05;6.50;99.90
48876;DHT22;34689;51.644;5.618;2023-04-25T05:02:36;6.50;99.90
48876;DHT22;34689;51.644;5.618;2023-04-25T05:05:02;6.50;99.90
48876;DHT22;34689;51.644;5.618;2023-04-25T05:07:28;6.60;99.90
48876;DHT22;34689;51.644;5.618;2023-04-25T05:09:53;6.60;99.90
48876;DHT22;34689;51.644;5.618;2023-04-25T05:12:19;6.70;99.90
48876;DHT22;34689;51.644;5.618;2023-04-25T05:14:47;6.70;99.90
48876;DHT22;34689;51.644;5.618;2023-04-25T05:17:12;6.70;99.90
48876;DHT22;34689;51.644;5.618;2023-04-25T05:19:41;6.70;99.90
48876;DHT22;34689;51.644;5.618;2023-04-25T05:22:07;6.80;99.90
48876;DHT22;34689;51.644;5.618;2023-04-25T05:24:35;6.80;99.90
48876;DHT22;34689;51.644;5.618;2023-04-25T05:27:03;6.80;99.90
48876;DHT22;34689;51.644;5.618;2023-04-25T05:29:29;6.90;99.90
48876;DHT22;34689;51.644;5.618;2023-04-25T05:31:55;6.90;99.90
48876;DHT22;34689;51.644;5.618;2023-04-25T05:34:20;6.90;99.90
48876;DHT22;34689;51.644;5.618;2023-04-25T05:36:49;6.90;99.90
48876;DHT22;34689;51.644;5.618;2023-04-25T05:39:18;6.90;99.90
48876;DHT22;34689;51.644;5.618;2023-04-25T05:41:43;6.90;99.90
48876;DHT22;34689;51.644;5.618;2023-04-25T05:44:09;6.90;99.90
48876;DHT22;34689;51.644;5.618;2023-04-25T05:46:37;6.90;99.90
48876;DHT22;34689;51.644;5.618;2023-04-25T05:49:05;6.90;99.90
48876;DHT22;34689;51.644;5.618;2023-04-25T05:51:31;6.90;99.90
48876;DHT22;34689;51.644;5.618;2023-04-25T05:53:57;7.00;99.90
48876;DHT22;34689;51.644;5.618;2023-04-25T05:56:22;7.00;99.90
48876;DHT22;34689;51.644;5.618;2023-04-25T05:58:48;7.00;99.90
48876;DHT22;34689;51.644;5.618;2023-04-25T06:01:14;7.10;99.90
48876;DHT22;34689;51.644;5.618;2023-04-25T06:03:45;7.00;99.90
48876;DHT22;34689;51.644;5.618;2023-04-25T06:06:12;7.10;99.90
48876;DHT22;34689;51.644;5.618;2023-04-25T06:08:40;7.10;99.90
48876;DHT22;34689;51.644;5.618;2023-04-25T06:11:15;7.10;99.90
48876;DHT22;34689;51.644;5.618;2023-04-25T06:13:49;7.10;99.90
48876;DHT22;34689;51.644;5.618;2023-04-25T06:16:33;7.10;99.90
48876;DHT22;34689;51.644;5.618;2023-04-25T06:19:05;7.10;99.90
48876;DHT22;34689;51.644;5.618;2023-04-25T06:21:36;7.10;99.90
48876;DHT22;34689;51.644;5.618;2023-04-25T06:24:11;7.20;99.90
48876;DHT22;34689;51.644;5.618;2023-04-25T06:26:42;7.10;99.90
48876;DHT22;34689;51.644;5.618;2023-04-25T06:29:15;7.20;99.90
48876;DHT22;34689;51.644;5.618;2023-04-25T06:31:44;7.20;99.90
48876;DHT22;34689;51.644;5.618;2023-04-25T06:34:13;7.20;99.90
48876;DHT22;34689;51.644;5.618;2023-04-25T06:36:44;7.20;99.90
48876;DHT22;34689;51.644;5.618;2023-04-25T06:39:16;7.20;99.90
48876;DHT22;34689;51.644;5.618;2023-04-25T06:41:47;7.30;99.90
48876;DHT22;34689;51.644;5.618;2023-04-25T06:44:19;7.30;99.90
48876;DHT22;34689;51.644;5.618;2023-04-25T06:46:48;7.20;99.90
48876;DHT22;34689;51.644;5.618;2023-04-25T06:49:22;7.20;99.90
48876;DHT22;34689;51.644;5.618;2023-04-25T06:51:59;7.20;99.90
48876;DHT22;34689;51.644;5.618;2023-04-25T06:54:30;7.30;99.90
48876;DHT22;34689;51.644;5.618;2023-04-25T06:56:59;7.30;99.90
48876;DHT22;34689;51.644;5.618;2023-04-25T06:59:29;7.30;99.90
48876;DHT22;34689;51.644;5.618;2023-04-25T07:01:57;7.30;99.90
48876;DHT22;34689;51.644;5.618;2023-04-25T07:04:29;7.40;99.90
48876;DHT22;34689;51.644;5.618;2023-04-25T07:07:01;7.40;99.90
48876;DHT22;34689;51.644;5.618;2023-04-25T07:12:32;7.50;99.90
48876;DHT22;34689;51.644;5.618;2023-04-25T07:14:58;7.50;99.90
48876;DHT22;34689;51.644;5.618;2023-04-25T07:17:32;7.60;99.90
48876;DHT22;34689;51.644;5.618;2023-04-25T07:20:05;7.60;99.90
48876;DHT22;34689;51.644;5.618;2023-04-25T07:22:37;7.60;99.90
48876;DHT22;34689;51.644;5.618;2023-04-25T07:25:09;7.60;99.90
48876;DHT22;34689;51.644;5.618;2023-04-25T07:27:35;7.70;99.90
48876;DHT22;34689;51.644;5.618;2023-04-25T07:30:11;7.70;99.90
48876;DHT22;34689;51.644;5.618;2023-04-25T07:32:43;7.70;99.90
48876;DHT22;34689;51.644;5.618;2023-04-25T07:35:15;7.80;99.90
48876;DHT22;34689;51.644;5.618;2023-04-25T07:37:46;7.80;99.90
48876;DHT22;34689;51.644;5.618;2023-04-25T07:40:23;7.80;99.90
48876;DHT22;34689;51.644;5.618;2023-04-25T07:42:57;7.80;99.90
48876;DHT22;34689;51.644;5.618;2023-04-25T07:45:26;7.90;99.90
48876;DHT22;34689;51.644;5.618;2023-04-25T07:47:58;7.90;99.90
48876;DHT22;34689;51.644;5.618;2023-04-25T07:50:32;8.00;99.90
48876;DHT22;34689;51.644;5.618;2023-04-25T07:53:06;8.10;99.90
48876;DHT22;34689;51.644;5.618;2023-04-25T07:55:34;8.10;99.90
48876;DHT22;34689;51.644;5.618;2023-04-25T07:58:07;8.20;99.90
48876;DHT22;34689;51.644;5.618;2023-04-25T08:00:42;8.30;99.90
48876;DHT22;34689;51.644;5.618;2023-04-25T08:03:14;8.30;99.90
48876;DHT22;34689;51.644;5.618;2023-04-25T08:05:48;8.30;99.90
48876;DHT22;34689;51.644;5.618;2023-04-25T08:08:14;8.40;99.90
48876;DHT22;34689;51.644;5.618;2023-04-25T08:10:43;8.50;99.90
48876;DHT22;34689;51.644;5.618;2023-04-25T08:13:08;8.60;99.90
48876;DHT22;34689;51.644;5.618;2023-04-25T08:15:34;8.60;99.90
48876;DHT22;34689;51.644;5.618;2023-04-25T08:18:02;8.70;99.90
48876;DHT22;34689;51.644;5.618;2023-04-25T08:20:28;8.80;99.90
48876;DHT22;34689;51.644;5.618;2023-04-25T08:22:53;8.90;99.90
48876;DHT22;34689;51.644;5.618;2023-04-25T08:25:22;8.90;99.90
48876;DHT22;34689;51.644;5.618;2023-04-25T08:27:50;9.00;99.90
48876;DHT22;34689;51.644;5.618;2023-04-25T08:30:19;9.10;99.90
48876;DHT22;34689;51.644;5.618;2023-04-25T08:32:47;9.10;99.90
48876;DHT22;34689;51.644;5.618;2023-04-25T08:35:15;9.20;99.90
48876;DHT22;34689;51.644;5.618;2023-04-25T08:37:43;9.20;99.90
48876;DHT22;34689;51.644;5.618;2023-04-25T08:40:12;9.20;99.90
48876;DHT22;34689;51.644;5.618;2023-04-25T08:42:43;9.30;99.90
48876;DHT22;34689;51.644;5.618;2023-04-25T08:45:10;9.30;99.90
48876;DHT22;34689;51.644;5.618;2023-04-25T08:47:39;9.30;99.90
48876;DHT22;34689;51.644;5.618;2023-04-25T08:50:05;9.30;99.90
48876;DHT22;34689;51.644;5.618;2023-04-25T08:52:41;9.40;99.90
48876;DHT22;34689;51.644;5.618;2023-04-25T08:55:10;9.40;99.90
48876;DHT22;34689;51.644;5.618;2023-04-25T08:57:43;9.40;99.90
48876;DHT22;34689;51.644;5.618;2023-04-25T09:00:12;9.40;99.90
48876;DHT22;34689;51.644;5.618;2023-04-25T09:02:45;9.40;99.90
48876;DHT22;34689;51.644;5.618;2023-04-25T09:05:13;9.40;99.90
48876;DHT22;34689;51.644;5.618;2023-04-25T09:07:39;9.50;99.90
48876;DHT22;34689;51.644;5.618;2023-04-25T09:10:08;9.50;99.90
48876;DHT22;34689;51.644;5.618;2023-04-25T09:12:35;9.60;99.90
48876;DHT22;34689;51.644;5.618;2023-04-25T09:15:09;9.60;99.90
48876;DHT22;34689;51.644;5.618;2023-04-25T09:17:44;9.70;99.90
48876;DHT22;34689;51.644;5.618;2023-04-25T09:20:14;9.80;99.90
48876;DHT22;34689;51.644;5.618;2023-04-25T09:22:43;9.90;99.90
48876;DHT22;34689;51.644;5.618;2023-04-25T09:25:12;9.90;99.90
48876;DHT22;34689;51.644;5.618;2023-04-25T09:27:53;9.80;99.90
48876;DHT22;34689;51.644;5.618;2023-04-25T09:30:31;9.70;99.90
48876;DHT22;34689;51.644;5.618;2023-04-25T09:33:04;9.60;99.90
48876;DHT22;34689;51.644;5.618;2023-04-25T09:35:42;9.50;99.90
48876;DHT22;34689;51.644;5.618;2023-04-25T09:38:14;9.30;99.90
48876;DHT22;34689;51.644;5.618;2023-04-25T09:40:45;9.10;99.90
48876;DHT22;34689;51.644;5.618;2023-04-25T09:43:21;8.90;99.90
48876;DHT22;34689;51.644;5.618;2023-04-25T09:45:55;8.70;99.90
48876;DHT22;34689;51.644;5.618;2023-04-25T09:48:27;8.80;99.90
48876;DHT22;34689;51.644;5.618;2023-04-25T09:51:19;8.80;99.90
48876;DHT22;34689;51.644;5.618;2023-04-25T09:53:49;9.10;99.90
48876;DHT22;34689;51.644;5.618;2023-04-25T09:56:21;9.20;99.90
48876;DHT22;34689;51.644;5.618;2023-04-25T09:58:51;9.70;99.90
48876;DHT22;34689;51.644;5.618;2023-04-25T10:01:23;10.90;99.90
48876;DHT22;34689;51.644;5.618;2023-04-25T10:03:53;13.10;99.90
48876;DHT22;34689;51.644;5.618;2023-04-25T10:06:25;15.30;99.90
48876;DHT22;34689;51.644;5.618;2023-04-25T10:08:55;17.30;99.90
48876;DHT22;34689;51.644;5.618;2023-04-25T10:11:27;18.70;99.90
48876;DHT22;34689;51.644;5.618;2023-04-25T10:13:56;20.00;98.40
48876;DHT22;34689;51.644;5.618;2023-04-25T10:16:24;20.80;95.10
48876;DHT22;34689;51.644;5.618;2023-04-25T10:18:53;21.30;93.50
48876;DHT22;34689;51.644;5.618;2023-04-25T10:21:24;21.30;92.00
48876;DHT22;34689;51.644;5.618;2023-04-25T10:23:55;21.10;92.20
48876;DHT22;34689;51.644;5.618;2023-04-25T10:26:26;20.20;92.00
48876;DHT22;34689;51.644;5.618;2023-04-25T10:29:03;19.60;92.70
48876;DHT22;34689;51.644;5.618;2023-04-25T10:31:32;18.70;95.00
48876;DHT22;34689;51.644;5.618;2023-04-25T10:34:00;17.80;97.90
48876;DHT22;34689;51.644;5.618;2023-04-25T10:36:33;17.00;99.50
48876;DHT22;34689;51.644;5.618;2023-04-25T10:39:02;16.40;99.90
48876;DHT22;34689;51.644;5.618;2023-04-25T10:41:47;16.10;97.40
48876;DHT22;34689;51.644;5.618;2023-04-25T10:44:14;15.70;99.90
48876;DHT22;34689;51.644;5.618;2023-04-25T10:46:43;15.50;99.90
48876;DHT22;34689;51.644;5.618;2023-04-25T10:49:19;15.40;99.90
48876;DHT22;34689;51.644;5.618;2023-04-25T10:54:57;15.00;99.90
48876;DHT22;34689;51.644;5.618;2023-04-25T10:57:37;14.80;99.90
48876;DHT22;34689;51.644;5.618;2023-04-25T11:00:05;14.30;99.90
48876;DHT22;34689;51.644;5.618;2023-04-25T11:02:37;13.80;99.90
48876;DHT22;34689;51.644;5.618;2023-04-25T11:05:06;13.40;99.90
48876;DHT22;34689;51.644;5.618;2023-04-25T11:07:51;13.00;99.90
48876;DHT22;34689;51.644;5.618;2023-04-25T11:10:25;12.70;99.90
48876;DHT22;34689;51.644;5.618;2023-04-25T11:12:54;12.20;99.90
48876;DHT22;34689;51.644;5.618;2023-04-25T11:15:20;11.90;99.90
48876;DHT22;34689;51.644;5.618;2023-04-25T11:17:50;11.60;99.90
48876;DHT22;34689;51.644;5.618;2023-04-25T11:20:16;11.40;99.90
48876;DHT22;34689;51.644;5.618;2023-04-25T11:22:47;11.30;99.90
48876;DHT22;34689;51.644;5.618;2023-04-25T11:25:19;11.10;99.90
48876;DHT22;34689;51.644;5.618;2023-04-25T11:28:20;11.00;99.90
48876;DHT22;34689;51.644;5.618;2023-04-25T11:30:48;10.90;99.90
48876;DHT22;34689;51.644;5.618;2023-04-25T11:33:16;10.80;99.90
48876;DHT22;34689;51.644;5.618;2023-04-25T11:35:44;10.80;99.90
48876;DHT22;34689;51.644;5.618;2023-04-25T11:38:18;10.80;99.90
48876;DHT22;34689;51.644;5.618;2023-04-25T11:40:46;10.80;99.90
48876;DHT22;34689;51.644;5.618;2023-04-25T11:43:23;11.00;99.90
48876;DHT22;34689;51.644;5.618;2023-04-25T11:46:00;11.10;99.90
48876;DHT22;34689;51.644;5.618;2023-04-25T11:48:42;11.10;99.90
48876;DHT22;34689;51.644;5.618;2023-04-25T11:51:17;11.40;99.90
48876;DHT22;34689;51.644;5.618;2023-04-25T11:53:44;11.60;99.90
48876;DHT22;34689;51.644;5.618;2023-04-25T11:56:13;11.70;99.90
48876;DHT22;34689;51.644;5.618;2023-04-25T11:58:58;11.90;99.90
48876;DHT22;34689;51.644;5.618;2023-04-25T12:01:35;12.00;99.90
48876;DHT22;34689;51.644;5.618;2023-04-25T12:04:20;12.00;99.90
48876;DHT22;34689;51.644;5.618;2023-04-25T12:06:49;12.20;99.90
48876;DHT22;34689;51.644;5.618;2023-04-25T12:09:20;12.30;99.90
48876;DHT22;34689;51.644;5.618;2023-04-25T12:11:55;12.50;99.90
48876;DHT22;34689;51.644;5.618;2023-04-25T12:14:23;12.60;99.90
48876;DHT22;34689;51.644;5.618;2023-04-25T12:16:59;12.60;99.90
48876;DHT22;34689;51.644;5.618;2023-04-25T12:19:36;12.70;99.90
48876;DHT22;34689;51.644;5.618;2023-04-25T12:22:08;12.90;99.90
48876;DHT22;34689;51.644;5.618;2023-04-25T12:24:48;13.10;99.90
48876;DHT22;34689;51.644;5.618;2023-04-25T12:27:17;13.20;99.40
48876;DHT22;34689;51.644;5.618;2023-04-25T12:29:54;13.30;99.90
48876;DHT22;34689;51.644;5.618;2023-04-25T12:32:27;13.40;99.90
48876;DHT22;34689;51.644;5.618;2023-04-25T12:34:55;13.50;99.90
48876;DHT22;34689;51.644;5.618;2023-04-25T12:37:24;13.60;99.90
48876;DHT22;34689;51.644;5.618;2023-04-25T12:39:52;13.60;99.90
48876;DHT22;34689;51.644;5.618;2023-04-25T12:42:19;13.70;99.90
48876;DHT22;34689;51.644;5.618;2023-04-25T12:44:51;13.80;99.90
48876;DHT22;34689;51.644;5.618;2023-04-25T12:47:20;13.80;99.90
48876;DHT22;34689;51.644;5.618;2023-04-25T12:49:46;14.00;99.90
48876;DHT22;34689;51.644;5.618;2023-04-25T12:52:12;13.90;99.90
48876;DHT22;34689;51.644;5.618;2023-04-25T12:54:40;13.90;99.90
48876;DHT22;34689;51.644;5.618;2023-04-25T12:57:08;13.70;99.90
48876;DHT22;34689;51.644;5.618;2023-04-25T12:59:36;13.50;99.90
48876;DHT22;34689;51.644;5.618;2023-04-25T13:02:02;13.20;99.90
48876;DHT22;34689;51.644;5.618;2023-04-25T13:04:34;13.10;99.90
48876;DHT22;34689;51.644;5.618;2023-04-25T13:07:05;13.00;99.90
48876;DHT22;34689;51.644;5.618;2023-04-25T13:09:39;12.80;99.90
48876;DHT22;34689;51.644;5.618;2023-04-25T13:12:08;12.60;99.90
48876;DHT22;34689;51.644;5.618;2023-04-25T13:14:40;12.50;99.90
48876;DHT22;34689;51.644;5.618;2023-04-25T13:17:08;12.50;99.90
48876;DHT22;34689;51.644;5.618;2023-04-25T13:19:40;12.40;99.90
48876;DHT22;34689;51.644;5.618;2023-04-25T13:22:08;12.40;99.90
48876;DHT22;34689;51.644;5.618;2023-04-25T13:24:37;12.40;99.90
48876;DHT22;34689;51.644;5.618;2023-04-25T13:27:09;12.40;99.90
48876;DHT22;34689;51.644;5.618;2023-04-25T13:29:41;12.50;99.90
48876;DHT22;34689;51.644;5.618;2023-04-25T13:32:08;12.60;99.90
48876;DHT22;34689;51.644;5.618;2023-04-25T13:34:34;12.80;99.90
48876;DHT22;34689;51.644;5.618;2023-04-25T13:37:04;13.00;99.90
48876;DHT22;34689;51.644;5.618;2023-04-25T13:39:34;13.20;99.90
48876;DHT22;34689;51.644;5.618;2023-04-25T13:42:03;13.30;99.90
48876;DHT22;34689;51.644;5.618;2023-04-25T13:44:33;13.50;99.90
48876;DHT22;34689;51.644;5.618;2023-04-25T13:47:01;13.60;99.90
48876;DHT22;34689;51.644;5.618;2023-04-25T13:49:27;13.70;99.90
48876;DHT22;34689;51.644;5.618;2023-04-25T13:51:52;13.80;99.90
48876;DHT22;34689;51.644;5.618;2023-04-25T13:54:21;13.90;99.90
48876;DHT22;34689;51.644;5.618;2023-04-25T13:56:51;13.90;99.90
48876;DHT22;34689;51.644;5.618;2023-04-25T13:59:18;13.90;99.90
48876;DHT22;34689;51.644;5.618;2023-04-25T14:01:49;13.80;99.90
48876;DHT22;34689;51.644;5.618;2023-04-25T14:04:17;13.70;99.90
48876;DHT22;34689;51.644;5.618;2023-04-25T14:06:45;13.70;99.90
48876;DHT22;34689;51.644;5.618;2023-04-25T14:09:18;13.70;99.90
48876;DHT22;34689;51.644;5.618;2023-04-25T14:11:53;13.70;99.90
48876;DHT22;34689;51.644;5.618;2023-04-25T14:14:20;13.70;99.90
48876;DHT22;34689;51.644;5.618;2023-04-25T14:16:52;13.70;99.90
48876;DHT22;34689;51.644;5.618;2023-04-25T14:19:20;13.70;99.90
48876;DHT22;34689;51.644;5.618;2023-04-25T14:21:48;13.70;99.90
48876;DHT22;34689;51.644;5.618;2023-04-25T14:24:14;13.70;99.90
48876;DHT22;34689;51.644;5.618;2023-04-25T14:26:40;13.70;99.90
48876;DHT22;34689;51.644;5.618;2023-04-25T14:29:09;13.70;99.90
48876;DHT22;34689;51.644;5.618;2023-04-25T14:31:40;13.70;99.90
48876;DHT22;34689;51.644;5.618;2023-04-25T14:34:09;13.60;99.90
48876;DHT22;34689;51.644;5.618;2023-04-25T14:36:36;13.60;99.90
48876;DHT22;34689;51.644;5.618;2023-04-25T14:39:05;13.60;99.90
48876;DHT22;34689;51.644;5.618;2023-04-25T14:41:33;13.50;99.90
48876;DHT22;34689;51.644;5.618;2023-04-25T14:43:58;13.50;99.90
48876;DHT22;34689;51.644;5.618;2023-04-25T14:46:29;13.50;99.90
48876;DHT22;34689;51.644;5.618;2023-04-25T14:49:00;13.50;99.90
48876;DHT22;34689;51.644;5.618;2023-04-25T14:51:29;13.40;99.90
48876;DHT22;34689;51.644;5.618;2023-04-25T14:53:55;13.30;99.90
48876;DHT22;34689;51.644;5.618;2023-04-25T14:56:26;13.30;99.90
48876;DHT22;34689;51.644;5.618;2023-04-25T14:58:54;13.20;99.90
48876;DHT22;34689;51.644;5.618;2023-04-25T15:01:25;13.20;99.90
48876;DHT22;34689;51.644;5.618;2023-04-25T15:04:00;13.20;99.90
48876;DHT22;34689;51.644;5.618;2023-04-25T15:06:26;13.20;99.90
48876;DHT22;34689;51.644;5.618;2023-04-25T15:08:52;13.30;99.90
48876;DHT22;34689;51.644;5.618;2023-04-25T15:11:22;13.20;99.90
48876;DHT22;34689;51.644;5.618;2023-04-25T15:13:48;13.10;99.90
48876;DHT22;34689;51.644;5.618;2023-04-25T15:16:16;13.00;99.90
48876;DHT22;34689;51.644;5.618;2023-04-25T15:18:47;12.90;99.90
48876;DHT22;34689;51.644;5.618;2023-04-25T15:21:18;12.80;99.90
48876;DHT22;34689;51.644;5.618;2023-04-25T15:23:46;12.80;99.90
48876;DHT22;34689;51.644;5.618;2023-04-25T15:26:12;12.70;99.90
48876;DHT22;34689;51.644;5.618;2023-04-25T15:28:40;12.70;99.90
48876;DHT22;34689;51.644;5.618;2023-04-25T15:31:06;12.70;99.80
48876;DHT22;34689;51.644;5.618;2023-04-25T15:33:34;12.70;99.90
48876;DHT22;34689;51.644;5.618;2023-04-25T15:36:00;12.70;99.80
48876;DHT22;34689;51.644;5.618;2023-04-25T15:38:33;12.80;99.80
48876;DHT22;34689;51.644;5.618;2023-04-25T15:41:01;12.70;99.40
48876;DHT22;34689;51.644;5.618;2023-04-25T15:43:29;12.60;99.80
48876;DHT22;34689;51.644;5.618;2023-04-25T15:46:04;12.50;99.90
48876;DHT22;34689;51.644;5.618;2023-04-25T15:48:30;12.50;99.90
48876;DHT22;34689;51.644;5.618;2023-04-25T15:51:01;12.40;99.90
48876;DHT22;34689;51.644;5.618;2023-04-25T15:53:29;12.40;99.90
48876;DHT22;34689;51.644;5.618;2023-04-25T15:55:57;12.40;99.90
48876;DHT22;34689;51.644;5.618;2023-04-25T15:58:26;12.30;99.90
48876;DHT22;34689;51.644;5.618;2023-04-25T16:00:52;12.30;99.90
48876;DHT22;34689;51.644;5.618;2023-04-25T16:03:20;12.30;99.90